createdAt,value
2019-04-06T00:03:03.971Z,68.23
2019-04-06T00:06:09.075Z,70.50
2019-04-06T00:09:42.308Z,74.00
2019-04-06T00:12:47.324Z,73.20
2019-04-06T00:15:52.176Z,72.60
2019-04-06T00:19:02.844Z,74.57
2019-04-06T00:25:17.839Z,73.30
2019-04-06T00:31:59.624Z,76.27
2019-04-06T00:35:03.841Z,75.93
2019-04-06T00:41:49.688Z,72.23
2019-04-06T00:49:06.980Z,72.33
2019-04-06T00:52:32.660Z,70.87
2019-04-06T00:55:55.528Z,72.30
2019-04-06T00:58:57.180Z,72.60
2019-04-06T01:02:02.019Z,70.20
2019-04-06T01:08:55.367Z,64.93
2019-04-06T01:12:23.755Z,64.40
2019-04-06T01:16:02.920Z,65.57
2019-04-06T01:19:09.602Z,63.33
2019-04-06T01:22:22.191Z,65.57
2019-04-06T01:28:40.973Z,66.97
2019-04-06T01:31:48.806Z,67.70
2019-04-06T01:35:03.510Z,69.93
2019-04-06T01:45:46.971Z,69.90
2019-04-06T01:52:27.470Z,71.87
2019-04-06T01:55:35.121Z,73.17
2019-04-06T01:58:41.073Z,69.53
2019-04-06T02:01:54.350Z,74.17
2019-04-06T02:04:59.061Z,72.90
2019-04-06T02:08:07.824Z,72.60
2019-04-06T02:11:12.497Z,73.37
2019-04-06T02:25:41.351Z,66.43
2019-04-06T02:28:46.157Z,67.80
2019-04-06T02:32:04.044Z,65.80
2019-04-06T02:35:34.992Z,66.73
2019-04-06T02:39:12.981Z,63.77
2019-04-06T02:42:21.816Z,65.63
2019-04-06T02:45:38.122Z,66.53
2019-04-06T02:48:46.419Z,67.43
2019-04-06T02:51:52.878Z,69.53
2019-04-06T02:55:00.737Z,69.13
2019-04-06T02:58:35.892Z,69.03
2019-04-06T03:01:44.055Z,66.70
2019-04-06T03:04:49.318Z,67.27
2019-04-06T03:08:16.500Z,67.57
2019-04-06T03:11:21.924Z,70.13
2019-04-06T03:14:26.677Z,66.93
2019-04-06T03:17:31.805Z,67.50
2019-04-06T03:20:43.004Z,66.47
2019-04-06T03:24:06.723Z,69.37
2019-04-06T03:27:17.759Z,69.07
2019-04-06T03:30:22.773Z,71.77
2019-04-06T03:33:40.009Z,73.00
2019-04-06T03:36:47.803Z,74.20
2019-04-06T03:39:52.709Z,75.27
2019-04-06T03:42:57.519Z,76.63
2019-04-06T03:46:03.830Z,75.97
2019-04-06T03:49:08.776Z,81.40
2019-04-06T03:55:54.271Z,76.87
2019-04-06T03:59:02.013Z,78.43
2019-04-06T04:05:18.648Z,82.10
2019-04-06T04:08:25.582Z,76.83
2019-04-06T04:18:36.644Z,78.20
2019-04-06T04:21:50.598Z,79.60
2019-04-06T04:24:58.345Z,79.90
2019-04-06T04:28:38.324Z,80.43
2019-04-06T04:35:55.918Z,77.80
2019-04-06T04:42:11.834Z,76.70
2019-04-06T04:45:29.155Z,81.60
2019-04-06T04:49:40.060Z,80.43
2019-04-06T04:53:02.105Z,79.43
2019-04-06T05:03:37.843Z,91.30
2019-04-06T05:06:42.276Z,92.97
2019-04-06T05:09:50.211Z,97.10
2019-04-06T05:13:24.510Z,102.87
2019-04-06T05:16:29.549Z,99.43
2019-04-06T05:19:52.815Z,102.83
2019-04-06T05:23:29.085Z,96.87
2019-04-06T05:26:05.726Z,99.43
2019-04-06T05:29:10.528Z,98.27
2019-04-06T05:32:15.336Z,95.20
2019-04-06T05:35:22.511Z,93.27
2019-04-06T05:38:33.020Z,95.70
2019-04-06T05:41:47.389Z,93.20
2019-04-06T05:44:56.003Z,93.03
2019-04-06T05:48:03.799Z,88.13
2019-04-06T05:51:13.166Z,88.53
2019-04-06T05:54:23.473Z,84.17
2019-04-06T05:57:32.718Z,84.13
2019-04-06T06:00:39.930Z,82.43
2019-04-06T06:03:43.938Z,78.87
2019-04-06T06:07:19.152Z,77.00
2019-04-06T06:10:02.006Z,76.03
2019-04-06T06:13:06.635Z,73.80
2019-04-06T06:16:20.334Z,73.27
2019-04-06T06:19:25.741Z,76.33
2019-04-06T06:22:31.434Z,73.67
2019-04-06T06:25:37.233Z,74.57
2019-04-06T06:28:47.938Z,69.40
2019-04-06T06:31:52.650Z,74.43
2019-04-06T06:34:57.513Z,71.40
2019-04-06T06:38:04.926Z,68.73
2019-04-06T06:41:15.494Z,68.27
2019-04-06T06:44:23.198Z,66.33
2019-04-06T06:47:36.845Z,62.73
2019-04-06T06:50:41.194Z,64.37
2019-04-06T06:53:45.591Z,61.47
2019-04-06T06:56:59.135Z,61.40
2019-04-06T07:00:03.671Z,61.47
2019-04-06T07:03:08.324Z,58.60
2019-04-06T07:06:12.844Z,57.00
2019-04-06T07:09:17.361Z,56.43
2019-04-06T07:12:24.115Z,56.97
2019-04-06T07:15:37.668Z,55.27
2019-04-06T07:18:42.296Z,51.77
2019-04-06T07:21:47.113Z,52.07
2019-04-06T07:24:51.588Z,53.07
2019-04-06T07:27:56.006Z,50.93
2019-04-06T07:31:00.468Z,50.40
2019-04-06T07:34:04.938Z,50.50
2019-04-06T07:37:15.567Z,49.47
2019-04-06T07:40:20.336Z,49.83
2019-04-06T07:43:24.856Z,51.33
2019-04-06T07:46:29.517Z,50.27
2019-04-06T07:49:34.047Z,50.27
2019-04-06T07:52:38.486Z,51.07
2019-04-06T07:55:45.097Z,52.40
2019-04-06T07:58:52.288Z,51.10
2019-04-06T08:02:16.371Z,49.50
2019-04-06T08:05:20.787Z,48.33
2019-04-06T08:08:28.855Z,50.53
2019-04-06T08:11:45.123Z,51.83
2019-04-06T08:14:49.673Z,48.57
2019-04-06T08:17:54.376Z,50.67
2019-04-06T08:20:58.918Z,48.77
2019-04-06T08:24:03.379Z,48.10
2019-04-06T08:27:07.897Z,48.90
2019-04-06T08:30:12.913Z,49.23
2019-04-06T08:33:17.516Z,49.37
2019-04-06T08:36:23.988Z,49.43
2019-04-06T08:39:39.473Z,46.80
2019-04-06T08:42:44.127Z,48.63
2019-04-06T08:45:49.309Z,50.10
2019-04-06T08:48:53.989Z,47.90
2019-04-06T08:52:11.598Z,49.43
2019-04-06T08:55:16.417Z,48.73
2019-04-06T08:58:21.505Z,48.03
2019-04-06T09:01:26.460Z,44.60
2019-04-06T09:04:32.674Z,42.40
2019-04-06T09:07:41.924Z,43.27
2019-04-06T09:10:49.516Z,40.23
2019-04-06T09:13:56.167Z,38.17
2019-04-06T09:17:00.819Z,38.97
2019-04-06T09:20:06.405Z,38.00
2019-04-06T09:23:21.646Z,39.07
2019-04-06T09:26:27.639Z,37.50
2019-04-06T09:29:32.046Z,36.23
2019-04-06T09:32:36.681Z,33.90
2019-04-06T09:35:41.521Z,34.80
2019-04-06T09:38:46.450Z,33.57
2019-04-06T09:41:55.117Z,34.73
2019-04-06T09:45:27.327Z,33.97
2019-04-06T09:48:41.288Z,32.20
2019-04-06T09:52:14.679Z,32.90
2019-04-06T09:55:44.089Z,32.37
2019-04-06T09:58:55.951Z,33.67
2019-04-06T10:02:19.376Z,33.00
2019-04-06T10:05:30.948Z,33.97
2019-04-06T10:08:55.385Z,33.27
2019-04-06T10:12:17.833Z,32.87
2019-04-06T10:15:36.738Z,34.30
2019-04-06T10:19:07.719Z,33.27
2019-04-06T10:22:29.576Z,34.10
2019-04-06T10:25:46.165Z,35.27
2019-04-06T10:29:08.122Z,34.97
2019-04-06T10:32:39.995Z,32.83
2019-04-06T10:36:03.224Z,35.80
2019-04-06T10:39:18.696Z,34.50
2019-04-06T10:42:41.987Z,33.50
2019-04-06T10:46:07.942Z,35.27
2019-04-06T10:49:29.583Z,33.73
2019-04-06T10:52:52.811Z,34.67
2019-04-06T10:56:25.301Z,35.93
2019-04-06T11:00:02.254Z,34.97
2019-04-06T11:03:05.539Z,33.40
2019-04-06T11:06:25.109Z,33.87
2019-04-06T11:09:51.725Z,35.67
2019-04-06T11:13:30.180Z,34.53
2019-04-06T11:16:52.100Z,35.13
2019-04-06T11:20:21.529Z,35.27
2019-04-06T11:23:36.404Z,36.63
2019-04-06T11:26:53.730Z,35.97
2019-04-06T11:30:23.083Z,35.87
2019-04-06T11:33:45.326Z,36.23
2019-04-06T11:37:06.756Z,36.10
2019-04-06T11:40:29.414Z,35.97
2019-04-06T11:43:58.622Z,35.23
2019-04-06T11:47:20.517Z,34.63
2019-04-06T11:50:46.591Z,35.23
2019-04-06T11:54:09.567Z,35.47
2019-04-06T11:57:28.805Z,35.77
2019-04-06T12:00:52.025Z,34.30
2019-04-06T12:04:18.337Z,35.77
2019-04-06T12:07:44.659Z,35.33
2019-04-06T12:10:54.479Z,35.60
2019-04-06T12:14:19.631Z,36.67
2019-04-06T12:17:41.306Z,34.73
2019-04-06T12:21:02.265Z,34.97
2019-04-06T12:24:31.520Z,35.60
2019-04-06T12:27:52.290Z,36.57
2019-04-06T12:31:27.751Z,36.40
2019-04-06T12:34:57.099Z,35.67
2019-04-06T12:38:10.901Z,35.67
2019-04-06T12:41:49.294Z,35.87
2019-04-06T12:45:24.658Z,35.87
2019-04-06T12:48:46.821Z,35.80
2019-04-06T12:52:16.213Z,35.17
2019-04-06T12:55:32.278Z,35.07
2019-04-06T12:58:55.497Z,35.03
2019-04-06T13:02:28.786Z,35.30
2019-04-06T13:05:45.518Z,36.30
2019-04-06T13:09:01.772Z,36.33
2019-04-06T13:12:28.529Z,35.70
2019-04-06T13:15:42.208Z,36.67
2019-04-06T13:19:05.554Z,37.20
2019-04-06T13:22:19.153Z,37.43
2019-04-06T13:25:30.276Z,38.03
2019-04-06T13:28:57.316Z,37.20
2019-04-06T13:32:16.650Z,36.37
2019-04-06T13:35:36.754Z,35.20
2019-04-06T13:39:09.249Z,36.97
2019-04-06T13:42:36.096Z,36.93
2019-04-06T13:45:49.821Z,36.53
2019-04-06T13:49:11.511Z,36.87
2019-04-06T13:52:43.645Z,35.83
2019-04-06T13:56:12.669Z,36.10
2019-04-06T13:59:51.008Z,36.80
2019-04-06T14:03:20.364Z,37.60
2019-04-06T14:06:58.801Z,38.53
2019-04-06T14:10:09.356Z,38.27
2019-04-06T14:13:37.736Z,36.67
2019-04-06T14:17:16.286Z,36.47
2019-04-06T14:20:45.439Z,37.03
2019-04-06T14:24:22.788Z,37.47
2019-04-06T14:27:44.582Z,36.07
2019-04-06T14:30:59.100Z,37.37
2019-04-06T14:34:22.319Z,36.03
2019-04-06T14:37:37.272Z,37.27
2019-04-06T14:40:59.138Z,36.20
2019-04-06T14:44:18.700Z,37.17
2019-04-06T14:47:44.729Z,37.00
2019-04-06T14:51:25.933Z,36.40
2019-04-06T14:54:51.998Z,37.93
2019-04-06T14:58:09.455Z,36.87
2019-04-06T15:01:48.623Z,37.60
2019-04-06T15:04:56.735Z,37.50
2019-04-06T15:08:20.321Z,38.47
2019-04-06T15:11:52.333Z,38.33
2019-04-06T15:15:15.979Z,36.50
2019-04-06T15:18:27.435Z,35.33
2019-04-06T15:21:41.809Z,37.03
2019-04-06T15:25:04.845Z,37.33
2019-04-06T15:28:24.457Z,36.27
2019-04-06T15:31:51.041Z,37.10
2019-04-06T15:35:05.040Z,34.73
2019-04-06T15:38:29.201Z,34.17
2019-04-06T15:41:56.264Z,34.00
2019-04-06T15:45:18.911Z,34.67
2019-04-06T15:48:54.334Z,32.67
2019-04-06T15:52:30.654Z,33.80
2019-04-06T15:55:51.035Z,34.23
2019-04-06T15:59:05.860Z,32.47
2019-04-06T16:02:18.885Z,34.27
2019-04-06T16:05:48.155Z,32.10
2019-04-06T16:09:11.440Z,32.87
2019-04-06T16:12:23.823Z,33.97
2019-04-06T16:15:52.341Z,34.13
2019-04-06T16:19:22.529Z,33.07
2019-04-06T16:27:42.574Z,34.83
2019-04-06T16:31:23.918Z,33.23
2019-04-06T16:38:52.773Z,33.23
2019-04-06T16:42:09.659Z,33.60
2019-04-06T16:45:26.155Z,32.27
2019-04-06T16:49:21.938Z,33.70
2019-04-06T16:52:45.337Z,32.50
2019-04-06T16:56:11.677Z,33.33
2019-04-06T16:59:35.513Z,34.53
2019-04-06T17:03:23.390Z,33.83
2019-04-06T17:10:28.632Z,31.97
2019-04-06T17:14:06.641Z,31.20
2019-04-06T17:17:38.433Z,33.37
2019-04-06T17:21:14.312Z,31.53
2019-04-06T17:24:37.922Z,33.30
2019-04-06T17:28:10.643Z,30.60
2019-04-06T17:31:52.645Z,30.77
2019-04-06T17:35:29.158Z,29.93
2019-04-06T17:43:04.480Z,31.37
2019-04-06T17:46:34.054Z,30.60
2019-04-06T17:50:05.353Z,30.23
2019-04-06T17:53:46.900Z,30.77
2019-04-06T17:57:01.557Z,29.80
2019-04-06T18:00:30.799Z,29.70
2019-04-06T18:07:42.769Z,32.73
2019-04-06T18:11:02.852Z,31.73
2019-04-06T18:14:11.011Z,31.17
2019-04-06T18:17:21.003Z,30.00
2019-04-06T18:20:30.163Z,29.57
2019-04-06T18:23:55.940Z,29.10
2019-04-06T18:27:01.712Z,29.63
2019-04-06T18:30:07.451Z,30.50
2019-04-06T18:33:37.274Z,30.43
2019-04-06T18:37:16.981Z,29.73
2019-04-06T18:40:24.205Z,31.70
2019-04-06T18:43:28.668Z,30.37
2019-04-06T18:46:33.810Z,29.47
2019-04-06T18:49:38.642Z,30.37
2019-04-06T18:52:46.559Z,30.10
2019-04-06T18:55:51.754Z,30.17
2019-04-06T18:58:56.261Z,29.33
2019-04-06T19:02:04.499Z,29.60
2019-04-06T19:05:15.268Z,29.27
2019-04-06T19:08:21.402Z,29.53
2019-04-06T19:11:27.648Z,30.03
2019-04-06T19:14:32.161Z,29.00
2019-04-06T19:17:38.863Z,30.40
2019-04-06T19:20:43.328Z,30.10
2019-04-06T19:23:48.352Z,30.97
2019-04-06T19:26:52.888Z,30.83
2019-04-06T19:29:57.388Z,28.77
2019-04-06T19:33:01.902Z,30.27
2019-04-06T19:36:07.130Z,29.43
2019-04-06T19:39:14.068Z,30.27
2019-04-06T19:42:19.280Z,30.40
2019-04-06T19:45:25.970Z,30.13
2019-04-06T19:48:30.597Z,33.00
2019-04-06T19:51:35.420Z,30.93
2019-04-06T19:54:40.388Z,31.63
2019-04-06T19:57:45.290Z,32.33
2019-04-06T20:00:52.722Z,32.80
2019-04-06T20:03:59.168Z,31.77
2019-04-06T20:07:04.108Z,33.23
2019-04-06T20:10:09.359Z,32.57
2019-04-06T20:13:14.347Z,32.73
2019-04-06T20:16:18.990Z,32.07
2019-04-06T20:19:23.981Z,33.33
2019-04-06T20:22:29.056Z,33.73
2019-04-06T20:25:34.598Z,33.53
2019-04-06T20:28:40.059Z,33.97
2019-04-06T20:31:47.802Z,33.30
2019-04-06T20:34:55.565Z,35.63
2019-04-06T20:38:00.447Z,34.17
2019-04-06T20:41:05.285Z,34.20
2019-04-06T20:44:10.809Z,35.40
2019-04-06T20:47:15.384Z,34.13
2019-04-06T20:50:24.530Z,35.17
2019-04-06T20:53:29.894Z,34.60
2019-04-06T20:56:35.057Z,34.87
2019-04-06T20:59:41.411Z,34.67
2019-04-06T21:09:46.357Z,35.00
2019-04-06T21:12:52.700Z,36.63
2019-04-06T21:16:06.985Z,35.73
2019-04-06T21:19:11.875Z,35.47
2019-04-06T21:22:17.261Z,34.33
2019-04-06T21:25:22.353Z,36.47
2019-04-06T21:28:48.867Z,35.17
2019-04-06T21:35:12.750Z,35.17
2019-04-06T21:38:34.385Z,36.90
2019-04-06T21:41:42.889Z,36.63
2019-04-06T21:44:50.431Z,35.50
2019-04-06T21:47:58.302Z,36.30
2019-04-06T21:51:04.479Z,37.87
2019-04-06T21:54:09.378Z,39.73
2019-04-06T21:57:14.546Z,37.33
2019-04-06T22:00:50.079Z,38.37
2019-04-06T22:04:25.865Z,37.77
2019-04-06T22:07:27.640Z,36.13
2019-04-06T22:10:32.316Z,36.93
2019-04-06T22:13:40.888Z,37.77
2019-04-06T22:16:45.855Z,37.67
2019-04-06T22:19:52.689Z,38.37
2019-04-06T22:22:58.253Z,36.50
2019-04-06T22:26:08.096Z,37.07
2019-04-06T22:29:22.193Z,37.33
2019-04-06T22:32:35.778Z,38.03
2019-04-06T22:35:40.834Z,38.03
2019-04-06T22:38:45.917Z,37.30
2019-04-06T22:41:53.705Z,38.50
2019-04-06T22:44:58.758Z,38.43
2019-04-06T22:48:04.743Z,38.13
2019-04-06T22:51:10.157Z,37.53
2019-04-06T22:54:14.993Z,38.20
2019-04-06T22:57:20.278Z,37.73
2019-04-06T23:00:34.980Z,37.83
2019-04-06T23:04:13.649Z,39.30
2019-04-06T23:07:43.876Z,39.30
2019-04-06T23:10:52.064Z,38.93
2019-04-06T23:13:56.731Z,38.10
2019-04-06T23:17:02.212Z,38.40
2019-04-06T23:20:07.464Z,38.20
2019-04-06T23:30:40.094Z,39.83
2019-04-06T23:33:45.097Z,37.17
2019-04-06T23:36:50.093Z,39.50
2019-04-06T23:39:55.042Z,38.57
2019-04-06T23:46:48.755Z,40.20
2019-04-06T23:54:40.213Z,38.07
2019-04-06T23:57:45.455Z,38.80
